sensor_id;sensor_type;location;lat;lon;timestamp;temperature;humidity
2539;DHT22;1280;49.760;9.664;2022-09-20T00:01:11;13.60;77.10
2539;DHT22;1280;49.760;9.664;2022-09-20T00:03:41;13.60;77.10
2539;DHT22;1280;49.760;9.664;2022-09-20T00:06:11;13.60;77.10
2539;DHT22;1280;49.760;9.664;2022-09-20T00:08:40;13.60;77.20
2539;DHT22;1280;49.760;9.664;2022-09-20T00:11:11;13.60;77.20
2539;DHT22;1280;49.760;9.664;2022-09-20T00:13:43;13.60;77.20
2539;DHT22;1280;49.760;9.664;2022-09-20T00:16:13;13.60;77.10
2539;DHT22;1280;49.760;9.664;2022-09-20T00:18:42;13.60;77.10
2539;DHT22;1280;49.760;9.664;2022-09-20T00:21:14;13.50;77.10
2539;DHT22;1280;49.760;9.664;2022-09-20T00:23:43;13.50;77.10
2539;DHT22;1280;49.760;9.664;2022-09-20T00:26:11;13.50;77.00
2539;DHT22;1280;49.760;9.664;2022-09-20T00:28:41;13.50;77.10
2539;DHT22;1280;49.760;9.664;2022-09-20T00:31:10;13.50;77.10
2539;DHT22;1280;49.760;9.664;2022-09-20T00:33:38;13.50;77.10
2539;DHT22;1280;49.760;9.664;2022-09-20T00:36:24;13.40;77.10
2539;DHT22;1280;49.760;9.664;2022-09-20T00:38:54;13.40;77.10
2539;DHT22;1280;49.760;9.664;2022-09-20T00:41:23;13.40;77.10
2539;DHT22;1280;49.760;9.664;2022-09-20T00:43:53;13.40;77.10
2539;DHT22;1280;49.760;9.664;2022-09-20T00:46:25;13.40;77.10
2539;DHT22;1280;49.760;9.664;2022-09-20T00:48:57;13.40;77.10
2539;DHT22;1280;49.760;9.664;2022-09-20T00:51:28;13.40;77.20
2539;DHT22;1280;49.760;9.664;2022-09-20T00:53:59;13.30;77.20
2539;DHT22;1280;49.760;9.664;2022-09-20T00:56:31;13.30;77.20
2539;DHT22;1280;49.760;9.664;2022-09-20T00:59:06;13.30;77.30
2539;DHT22;1280;49.760;9.664;2022-09-20T01:01:38;13.30;77.40
2539;DHT22;1280;49.760;9.664;2022-09-20T01:04:06;13.30;77.40
2539;DHT22;1280;49.760;9.664;2022-09-20T01:06:35;13.30;77.50
2539;DHT22;1280;49.760;9.664;2022-09-20T01:09:04;13.40;77.50
2539;DHT22;1280;49.760;9.664;2022-09-20T01:11:34;13.40;77.50
2539;DHT22;1280;49.760;9.664;2022-09-20T01:14:03;13.40;77.50
2539;DHT22;1280;49.760;9.664;2022-09-20T01:16:31;13.40;77.50
2539;DHT22;1280;49.760;9.664;2022-09-20T01:19:04;13.40;77.40
2539;DHT22;1280;49.760;9.664;2022-09-20T01:21:35;13.30;77.40
2539;DHT22;1280;49.760;9.664;2022-09-20T01:24:08;13.30;77.50
2539;DHT22;1280;49.760;9.664;2022-09-20T01:26:57;13.30;77.50
2539;DHT22;1280;49.760;9.664;2022-09-20T01:30:04;13.30;77.50
2539;DHT22;1280;49.760;9.664;2022-09-20T01:32:46;13.30;77.60
2539;DHT22;1280;49.760;9.664;2022-09-20T01:35:18;13.20;77.70
2539;DHT22;1280;49.760;9.664;2022-09-20T01:38:01;13.20;77.80
2539;DHT22;1280;49.760;9.664;2022-09-20T01:40:38;13.20;77.80
2539;DHT22;1280;49.760;9.664;2022-09-20T01:43:16;13.20;77.80
2539;DHT22;1280;49.760;9.664;2022-09-20T01:45:47;13.30;77.80
2539;DHT22;1280;49.760;9.664;2022-09-20T01:48:24;13.30;77.90
2539;DHT22;1280;49.760;9.664;2022-09-20T01:51:30;13.30;77.90
2539;DHT22;1280;49.760;9.664;2022-09-20T02:00:12;13.30;77.80
2539;DHT22;1280;49.760;9.664;2022-09-20T02:03:07;13.30;77.80
2539;DHT22;1280;49.760;9.664;2022-09-20T02:05:57;13.30;77.80
2539;DHT22;1280;49.760;9.664;2022-09-20T02:08:44;13.20;77.80
2539;DHT22;1280;49.760;9.664;2022-09-20T02:11:15;13.20;77.80
2539;DHT22;1280;49.760;9.664;2022-09-20T02:14:03;13.20;77.80
2539;DHT22;1280;49.760;9.664;2022-09-20T02:16:45;13.20;77.80
2539;DHT22;1280;49.760;9.664;2022-09-20T02:19:38;13.20;77.80
2539;DHT22;1280;49.760;9.664;2022-09-20T02:22:15;13.20;77.80
2539;DHT22;1280;49.760;9.664;2022-09-20T02:24:52;13.10;77.80
2539;DHT22;1280;49.760;9.664;2022-09-20T02:27:25;13.10;77.80
2539;DHT22;1280;49.760;9.664;2022-09-20T02:30:03;13.10;77.70
2539;DHT22;1280;49.760;9.664;2022-09-20T02:32:49;13.00;77.70
2539;DHT22;1280;49.760;9.664;2022-09-20T02:35:28;13.00;77.70
2539;DHT22;1280;49.760;9.664;2022-09-20T02:38:17;13.00;77.70
2539;DHT22;1280;49.760;9.664;2022-09-20T02:41:12;13.00;77.80
2539;DHT22;1280;49.760;9.664;2022-09-20T02:44:00;13.00;77.80
2539;DHT22;1280;49.760;9.664;2022-09-20T02:46:36;12.90;77.80
2539;DHT22;1280;49.760;9.664;2022-09-20T02:49:11;12.90;77.80
2539;DHT22;1280;49.760;9.664;2022-09-20T02:51:48;12.90;77.90
2539;DHT22;1280;49.760;9.664;2022-09-20T02:54:32;12.90;77.80
2539;DHT22;1280;49.760;9.664;2022-09-20T02:57:11;12.90;77.90
2539;DHT22;1280;49.760;9.664;2022-09-20T02:59:48;12.90;77.90
2539;DHT22;1280;49.760;9.664;2022-09-20T03:02:23;12.90;77.90
2539;DHT22;1280;49.760;9.664;2022-09-20T03:05:05;12.90;77.90
2539;DHT22;1280;49.760;9.664;2022-09-20T03:07:45;12.90;77.90
2539;DHT22;1280;49.760;9.664;2022-09-20T03:10:20;12.90;77.90
2539;DHT22;1280;49.760;9.664;2022-09-20T03:12:59;12.80;77.90
2539;DHT22;1280;49.760;9.664;2022-09-20T03:15:40;12.80;78.10
2539;DHT22;1280;49.760;9.664;2022-09-20T03:18:15;12.80;78.20
2539;DHT22;1280;49.760;9.664;2022-09-20T03:20:53;12.80;78.20
2539;DHT22;1280;49.760;9.664;2022-09-20T03:23:37;12.80;78.20
2539;DHT22;1280;49.760;9.664;2022-09-20T03:26:15;12.80;78.20
2539;DHT22;1280;49.760;9.664;2022-09-20T03:28:54;12.80;78.20
2539;DHT22;1280;49.760;9.664;2022-09-20T03:31:36;12.80;78.20
2539;DHT22;1280;49.760;9.664;2022-09-20T03:34:19;12.70;78.20
2539;DHT22;1280;49.760;9.664;2022-09-20T03:37:07;12.70;78.20
2539;DHT22;1280;49.760;9.664;2022-09-20T03:39:59;12.70;78.30
2539;DHT22;1280;49.760;9.664;2022-09-20T03:42:30;12.70;78.30
2539;DHT22;1280;49.760;9.664;2022-09-20T03:45:21;12.70;78.20
2539;DHT22;1280;49.760;9.664;2022-09-20T03:48:12;12.70;78.30
2539;DHT22;1280;49.760;9.664;2022-09-20T03:51:08;12.70;78.30
2539;DHT22;1280;49.760;9.664;2022-09-20T03:54:03;12.60;78.40
2539;DHT22;1280;49.760;9.664;2022-09-20T03:57:04;12.60;78.40
2539;DHT22;1280;49.760;9.664;2022-09-20T03:59:45;12.60;78.40
2539;DHT22;1280;49.760;9.664;2022-09-20T04:02:33;12.60;78.50
2539;DHT22;1280;49.760;9.664;2022-09-20T04:05:08;12.60;78.50
2539;DHT22;1280;49.760;9.664;2022-09-20T04:07:45;12.60;78.50
2539;DHT22;1280;49.760;9.664;2022-09-20T04:10:26;12.60;78.50
2539;DHT22;1280;49.760;9.664;2022-09-20T04:13:12;12.60;78.50
2539;DHT22;1280;49.760;9.664;2022-09-20T04:15:49;12.60;78.40
2539;DHT22;1280;49.760;9.664;2022-09-20T04:18:26;12.60;78.40
2539;DHT22;1280;49.760;9.664;2022-09-20T04:21:01;12.50;78.40
2539;DHT22;1280;49.760;9.664;2022-09-20T04:23:38;12.50;78.40
2539;DHT22;1280;49.760;9.664;2022-09-20T04:26:08;12.50;78.50
2539;DHT22;1280;49.760;9.664;2022-09-20T04:28:40;12.50;78.50
2539;DHT22;1280;49.760;9.664;2022-09-20T04:31:19;12.50;78.60
2539;DHT22;1280;49.760;9.664;2022-09-20T04:33:51;12.50;78.60
2539;DHT22;1280;49.760;9.664;2022-09-20T04:36:35;12.40;78.70
2539;DHT22;1280;49.760;9.664;2022-09-20T04:39:10;12.50;78.70
2539;DHT22;1280;49.760;9.664;2022-09-20T04:45:10;12.50;78.80
2539;DHT22;1280;49.760;9.664;2022-09-20T04:48:33;12.50;78.80
2539;DHT22;1280;49.760;9.664;2022-09-20T04:57:31;12.50;78.90
2539;DHT22;1280;49.760;9.664;2022-09-20T05:00:07;12.50;79.00
2539;DHT22;1280;49.760;9.664;2022-09-20T05:03:10;12.50;79.00
2539;DHT22;1280;49.760;9.664;2022-09-20T05:06:08;12.50;79.00
2539;DHT22;1280;49.760;9.664;2022-09-20T05:09:00;12.50;79.00
2539;DHT22;1280;49.760;9.664;2022-09-20T05:14:38;12.50;79.20
2539;DHT22;1280;49.760;9.664;2022-09-20T05:17:22;12.50;79.20
2539;DHT22;1280;49.760;9.664;2022-09-20T05:20:08;12.50;79.20
2539;DHT22;1280;49.760;9.664;2022-09-20T05:23:09;12.50;79.30
2539;DHT22;1280;49.760;9.664;2022-09-20T05:26:02;12.60;79.30
2539;DHT22;1280;49.760;9.664;2022-09-20T05:28:43;12.60;79.30
2539;DHT22;1280;49.760;9.664;2022-09-20T05:31:13;12.60;79.30
2539;DHT22;1280;49.760;9.664;2022-09-20T05:33:49;12.60;79.30
2539;DHT22;1280;49.760;9.664;2022-09-20T05:36:22;12.60;79.30
2539;DHT22;1280;49.760;9.664;2022-09-20T05:39:03;12.60;79.30
2539;DHT22;1280;49.760;9.664;2022-09-20T05:41:39;12.70;79.40
2539;DHT22;1280;49.760;9.664;2022-09-20T05:44:18;12.70;79.40
2539;DHT22;1280;49.760;9.664;2022-09-20T05:46:56;12.70;79.40
2539;DHT22;1280;49.760;9.664;2022-09-20T05:49:38;12.70;79.40
2539;DHT22;1280;49.760;9.664;2022-09-20T05:52:25;12.70;79.40
2539;DHT22;1280;49.760;9.664;2022-09-20T05:55:18;12.70;79.40
2539;DHT22;1280;49.760;9.664;2022-09-20T05:57:57;12.70;79.40
2539;DHT22;1280;49.760;9.664;2022-09-20T06:00:31;12.80;79.50
2539;DHT22;1280;49.760;9.664;2022-09-20T06:03:04;12.80;79.50
2539;DHT22;1280;49.760;9.664;2022-09-20T06:05:48;12.80;79.50
2539;DHT22;1280;49.760;9.664;2022-09-20T06:08:34;12.80;79.50
2539;DHT22;1280;49.760;9.664;2022-09-20T06:11:16;12.80;79.50
2539;DHT22;1280;49.760;9.664;2022-09-20T06:13:58;12.80;79.50
2539;DHT22;1280;49.760;9.664;2022-09-20T06:16:36;12.90;79.50
2539;DHT22;1280;49.760;9.664;2022-09-20T06:19:15;12.90;79.50
2539;DHT22;1280;49.760;9.664;2022-09-20T06:21:50;12.90;79.60
2539;DHT22;1280;49.760;9.664;2022-09-20T06:24:30;12.90;79.60
2539;DHT22;1280;49.760;9.664;2022-09-20T06:27:03;13.00;79.60
2539;DHT22;1280;49.760;9.664;2022-09-20T06:29:36;13.00;79.60
2539;DHT22;1280;49.760;9.664;2022-09-20T06:32:06;13.00;79.50
2539;DHT22;1280;49.760;9.664;2022-09-20T06:34:34;13.00;79.50
2539;DHT22;1280;49.760;9.664;2022-09-20T06:37:14;13.00;79.50
2539;DHT22;1280;49.760;9.664;2022-09-20T06:40:25;13.00;79.60
2539;DHT22;1280;49.760;9.664;2022-09-20T06:43:13;13.10;79.50
2539;DHT22;1280;49.760;9.664;2022-09-20T06:45:41;13.10;79.60
2539;DHT22;1280;49.760;9.664;2022-09-20T06:48:10;13.10;79.50
2539;DHT22;1280;49.760;9.664;2022-09-20T06:50:38;13.20;79.60
2539;DHT22;1280;49.760;9.664;2022-09-20T06:53:14;13.20;79.50
2539;DHT22;1280;49.760;9.664;2022-09-20T06:55:44;13.20;79.40
2539;DHT22;1280;49.760;9.664;2022-09-20T06:58:13;13.20;79.50
2539;DHT22;1280;49.760;9.664;2022-09-20T07:00:40;13.20;79.50
2539;DHT22;1280;49.760;9.664;2022-09-20T07:03:08;13.30;79.40
2539;DHT22;1280;49.760;9.664;2022-09-20T07:05:38;13.30;79.50
2539;DHT22;1280;49.760;9.664;2022-09-20T07:08:06;13.30;79.50
2539;DHT22;1280;49.760;9.664;2022-09-20T07:10:35;13.30;79.50
2539;DHT22;1280;49.760;9.664;2022-09-20T07:13:04;13.30;79.40
2539;DHT22;1280;49.760;9.664;2022-09-20T07:15:33;13.30;79.30
2539;DHT22;1280;49.760;9.664;2022-09-20T07:18:01;13.30;79.30
2539;DHT22;1280;49.760;9.664;2022-09-20T07:20:29;13.30;79.40
2539;DHT22;1280;49.760;9.664;2022-09-20T07:22:57;13.30;79.30
2539;DHT22;1280;49.760;9.664;2022-09-20T07:25:25;13.30;79.20
2539;DHT22;1280;49.760;9.664;2022-09-20T07:27:54;13.30;79.20
2539;DHT22;1280;49.760;9.664;2022-09-20T07:30:23;13.30;79.20
2539;DHT22;1280;49.760;9.664;2022-09-20T07:32:50;13.20;79.20
2539;DHT22;1280;49.760;9.664;2022-09-20T07:35:19;13.30;79.20
2539;DHT22;1280;49.760;9.664;2022-09-20T07:37:47;13.30;79.30
2539;DHT22;1280;49.760;9.664;2022-09-20T07:40:15;13.30;79.30
2539;DHT22;1280;49.760;9.664;2022-09-20T07:42:43;13.30;79.20
2539;DHT22;1280;49.760;9.664;2022-09-20T07:45:13;13.30;79.10
2539;DHT22;1280;49.760;9.664;2022-09-20T07:47:41;13.30;79.20
2539;DHT22;1280;49.760;9.664;2022-09-20T07:50:10;13.30;79.20
2539;DHT22;1280;49.760;9.664;2022-09-20T07:52:38;13.30;79.10
2539;DHT22;1280;49.760;9.664;2022-09-20T07:55:07;13.30;79.20
2539;DHT22;1280;49.760;9.664;2022-09-20T07:57:35;13.40;79.20
2539;DHT22;1280;49.760;9.664;2022-09-20T08:00:05;13.40;79.10
2539;DHT22;1280;49.760;9.664;2022-09-20T08:02:39;13.40;79.00
2539;DHT22;1280;49.760;9.664;2022-09-20T08:05:07;13.30;78.90
2539;DHT22;1280;49.760;9.664;2022-09-20T08:07:35;13.40;79.10
2539;DHT22;1280;49.760;9.664;2022-09-20T08:10:05;13.40;79.10
2539;DHT22;1280;49.760;9.664;2022-09-20T08:12:33;13.40;79.10
2539;DHT22;1280;49.760;9.664;2022-09-20T08:15:21;13.50;79.20
2539;DHT22;1280;49.760;9.664;2022-09-20T08:17:51;13.50;79.20
2539;DHT22;1280;49.760;9.664;2022-09-20T08:20:19;13.60;78.90
2539;DHT22;1280;49.760;9.664;2022-09-20T08:22:47;13.60;79.10
2539;DHT22;1280;49.760;9.664;2022-09-20T08:25:35;13.60;79.20
2539;DHT22;1280;49.760;9.664;2022-09-20T08:28:05;13.70;79.20
2539;DHT22;1280;49.760;9.664;2022-09-20T08:30:33;13.70;79.20
2539;DHT22;1280;49.760;9.664;2022-09-20T08:33:03;13.80;79.00
2539;DHT22;1280;49.760;9.664;2022-09-20T08:35:34;13.80;79.00
2539;DHT22;1280;49.760;9.664;2022-09-20T08:38:04;13.90;78.90
2539;DHT22;1280;49.760;9.664;2022-09-20T08:40:55;13.90;78.80
2539;DHT22;1280;49.760;9.664;2022-09-20T08:43:27;13.90;78.60
2539;DHT22;1280;49.760;9.664;2022-09-20T08:45:57;13.90;78.40
2539;DHT22;1280;49.760;9.664;2022-09-20T08:48:33;13.90;78.50
2539;DHT22;1280;49.760;9.664;2022-09-20T08:51:02;14.00;78.60
2539;DHT22;1280;49.760;9.664;2022-09-20T08:53:32;14.10;78.50
2539;DHT22;1280;49.760;9.664;2022-09-20T08:56:00;14.10;78.50
2539;DHT22;1280;49.760;9.664;2022-09-20T08:58:30;14.10;78.40
2539;DHT22;1280;49.760;9.664;2022-09-20T09:00:58;14.20;78.30
2539;DHT22;1280;49.760;9.664;2022-09-20T09:03:26;14.20;78.10
2539;DHT22;1280;49.760;9.664;2022-09-20T09:05:56;14.20;78.10
2539;DHT22;1280;49.760;9.664;2022-09-20T09:08:27;14.20;78.10
2539;DHT22;1280;49.760;9.664;2022-09-20T09:11:01;14.20;78.00
2539;DHT22;1280;49.760;9.664;2022-09-20T09:13:38;14.20;77.90
2539;DHT22;1280;49.760;9.664;2022-09-20T09:16:11;14.20;77.80
2539;DHT22;1280;49.760;9.664;2022-09-20T09:18:43;14.20;77.80
2539;DHT22;1280;49.760;9.664;2022-09-20T09:21:18;14.20;77.80
2539;DHT22;1280;49.760;9.664;2022-09-20T09:23:51;14.20;77.80
2539;DHT22;1280;49.760;9.664;2022-09-20T09:26:21;14.20;77.70
2539;DHT22;1280;49.760;9.664;2022-09-20T09:29:15;14.30;77.60
2539;DHT22;1280;49.760;9.664;2022-09-20T09:31:44;14.30;77.50
2539;DHT22;1280;49.760;9.664;2022-09-20T09:34:23;14.30;77.40
2539;DHT22;1280;49.760;9.664;2022-09-20T09:36:53;14.30;77.20
2539;DHT22;1280;49.760;9.664;2022-09-20T09:39:26;14.30;77.20
2539;DHT22;1280;49.760;9.664;2022-09-20T09:41:55;14.40;76.90
2539;DHT22;1280;49.760;9.664;2022-09-20T09:44:28;14.30;76.90
2539;DHT22;1280;49.760;9.664;2022-09-20T09:46:56;14.30;76.90
2539;DHT22;1280;49.760;9.664;2022-09-20T09:49:26;14.40;76.90
2539;DHT22;1280;49.760;9.664;2022-09-20T09:52:11;14.40;76.90
2539;DHT22;1280;49.760;9.664;2022-09-20T09:54:44;14.50;77.00
2539;DHT22;1280;49.760;9.664;2022-09-20T09:57:28;14.50;76.80
2539;DHT22;1280;49.760;9.664;2022-09-20T10:00:09;14.60;76.60
2539;DHT22;1280;49.760;9.664;2022-09-20T10:03:11;14.60;76.50
2539;DHT22;1280;49.760;9.664;2022-09-20T10:05:54;14.60;76.40
2539;DHT22;1280;49.760;9.664;2022-09-20T10:08:32;14.60;76.40
2539;DHT22;1280;49.760;9.664;2022-09-20T10:11:15;14.60;76.30
2539;DHT22;1280;49.760;9.664;2022-09-20T10:13:50;14.60;76.30
2539;DHT22;1280;49.760;9.664;2022-09-20T10:16:27;14.60;76.10
2539;DHT22;1280;49.760;9.664;2022-09-20T10:19:03;14.60;76.00
2539;DHT22;1280;49.760;9.664;2022-09-20T10:21:42;14.60;76.00
2539;DHT22;1280;49.760;9.664;2022-09-20T10:24:31;14.60;76.00
2539;DHT22;1280;49.760;9.664;2022-09-20T10:27:21;14.60;75.90
2539;DHT22;1280;49.760;9.664;2022-09-20T10:30:02;14.60;75.90
2539;DHT22;1280;49.760;9.664;2022-09-20T10:35:24;14.60;75.70
2539;DHT22;1280;49.760;9.664;2022-09-20T10:38:08;14.60;75.70
2539;DHT22;1280;49.760;9.664;2022-09-20T10:40:48;14.60;75.40
2539;DHT22;1280;49.760;9.664;2022-09-20T10:43:47;14.60;75.40
2539;DHT22;1280;49.760;9.664;2022-09-20T10:46:25;14.60;75.10
2539;DHT22;1280;49.760;9.664;2022-09-20T10:49:03;14.70;75.10
2539;DHT22;1280;49.760;9.664;2022-09-20T10:51:42;14.70;75.00
2539;DHT22;1280;49.760;9.664;2022-09-20T10:54:22;14.70;74.40
2539;DHT22;1280;49.760;9.664;2022-09-20T10:57:16;14.70;74.20
2539;DHT22;1280;49.760;9.664;2022-09-20T10:59:48;14.70;74.10
2539;DHT22;1280;49.760;9.664;2022-09-20T11:02:43;14.70;74.00
2539;DHT22;1280;49.760;9.664;2022-09-20T11:05:22;14.80;74.00
2539;DHT22;1280;49.760;9.664;2022-09-20T11:08:00;14.80;73.80
2539;DHT22;1280;49.760;9.664;2022-09-20T11:10:33;14.80;73.70
2539;DHT22;1280;49.760;9.664;2022-09-20T11:13:09;14.80;73.50
2539;DHT22;1280;49.760;9.664;2022-09-20T11:15:43;14.90;73.40
2539;DHT22;1280;49.760;9.664;2022-09-20T11:18:18;14.90;73.00
2539;DHT22;1280;49.760;9.664;2022-09-20T11:20:56;14.90;72.70
2539;DHT22;1280;49.760;9.664;2022-09-20T11:23:32;14.80;72.50
2539;DHT22;1280;49.760;9.664;2022-09-20T11:26:08;14.80;72.60
2539;DHT22;1280;49.760;9.664;2022-09-20T11:28:41;14.80;72.20
2539;DHT22;1280;49.760;9.664;2022-09-20T11:31:18;14.90;72.10
2539;DHT22;1280;49.760;9.664;2022-09-20T11:33:52;14.90;72.20
2539;DHT22;1280;49.760;9.664;2022-09-20T11:36:25;14.90;72.10
2539;DHT22;1280;49.760;9.664;2022-09-20T11:38:59;15.00;71.90
2539;DHT22;1280;49.760;9.664;2022-09-20T11:41:29;15.00;71.90
2539;DHT22;1280;49.760;9.664;2022-09-20T11:44:01;15.00;71.70
2539;DHT22;1280;49.760;9.664;2022-09-20T11:46:36;15.10;71.80
2539;DHT22;1280;49.760;9.664;2022-09-20T11:49:10;15.10;71.60
2539;DHT22;1280;49.760;9.664;2022-09-20T11:55:03;15.20;71.20
2539;DHT22;1280;49.760;9.664;2022-09-20T11:57:37;15.20;71.10
2539;DHT22;1280;49.760;9.664;2022-09-20T12:00:07;15.30;70.80
2539;DHT22;1280;49.760;9.664;2022-09-20T12:02:43;15.30;70.60
2539;DHT22;1280;49.760;9.664;2022-09-20T12:05:26;15.30;70.70
2539;DHT22;1280;49.760;9.664;2022-09-20T12:07:57;15.30;70.50
2539;DHT22;1280;49.760;9.664;2022-09-20T12:10:28;15.30;70.50
2539;DHT22;1280;49.760;9.664;2022-09-20T12:12:59;15.30;70.30
2539;DHT22;1280;49.760;9.664;2022-09-20T12:15:32;15.30;70.20
2539;DHT22;1280;49.760;9.664;2022-09-20T12:18:11;15.30;70.20
2539;DHT22;1280;49.760;9.664;2022-09-20T12:23:46;15.30;70.20
2539;DHT22;1280;49.760;9.664;2022-09-20T12:26:41;15.30;70.40
2539;DHT22;1280;49.760;9.664;2022-09-20T12:36:11;15.60;70.50
2539;DHT22;1280;49.760;9.664;2022-09-20T12:38:58;15.70;70.40
2539;DHT22;1280;49.760;9.664;2022-09-20T12:41:27;15.80;70.40
2539;DHT22;1280;49.760;9.664;2022-09-20T12:44:26;15.90;70.40
2539;DHT22;1280;49.760;9.664;2022-09-20T12:46:57;15.90;69.90
2539;DHT22;1280;49.760;9.664;2022-09-20T12:49:42;15.90;69.80
2539;DHT22;1280;49.760;9.664;2022-09-20T12:52:51;15.80;69.80
2539;DHT22;1280;49.760;9.664;2022-09-20T12:55:40;15.70;69.80
2539;DHT22;1280;49.760;9.664;2022-09-20T12:58:21;15.70;69.80
2539;DHT22;1280;49.760;9.664;2022-09-20T13:03:41;15.60;70.10
2539;DHT22;1280;49.760;9.664;2022-09-20T13:06:24;15.60;70.10
2539;DHT22;1280;49.760;9.664;2022-09-20T13:09:02;15.50;69.90
2539;DHT22;1280;49.760;9.664;2022-09-20T13:11:37;15.50;70.00
2539;DHT22;1280;49.760;9.664;2022-09-20T13:14:10;15.40;70.00
2539;DHT22;1280;49.760;9.664;2022-09-20T13:16:49;15.40;70.10
2539;DHT22;1280;49.760;9.664;2022-09-20T13:19:21;15.40;70.10
2539;DHT22;1280;49.760;9.664;2022-09-20T13:21:54;15.40;70.40
2539;DHT22;1280;49.760;9.664;2022-09-20T13:24:26;15.40;70.40
2539;DHT22;1280;49.760;9.664;2022-09-20T13:26:59;15.50;70.40
2539;DHT22;1280;49.760;9.664;2022-09-20T13:29:31;15.60;70.40
2539;DHT22;1280;49.760;9.664;2022-09-20T13:32:14;15.60;70.20
2539;DHT22;1280;49.760;9.664;2022-09-20T13:34:43;15.60;70.10
2539;DHT22;1280;49.760;9.664;2022-09-20T13:37:16;15.70;70.00
2539;DHT22;1280;49.760;9.664;2022-09-20T13:39:52;15.70;69.90
2539;DHT22;1280;49.760;9.664;2022-09-20T13:42:21;15.70;69.40
2539;DHT22;1280;49.760;9.664;2022-09-20T13:44:50;15.80;69.60
2539;DHT22;1280;49.760;9.664;2022-09-20T13:47:24;15.80;69.70
2539;DHT22;1280;49.760;9.664;2022-09-20T13:49:58;15.90;69.40
2539;DHT22;1280;49.760;9.664;2022-09-20T13:52:29;16.00;69.30
2539;DHT22;1280;49.760;9.664;2022-09-20T13:54:59;16.10;69.20
2539;DHT22;1280;49.760;9.664;2022-09-20T13:57:28;16.20;69.10
2539;DHT22;1280;49.760;9.664;2022-09-20T13:59:57;16.30;68.90
2539;DHT22;1280;49.760;9.664;2022-09-20T14:02:37;16.30;68.80
2539;DHT22;1280;49.760;9.664;2022-09-20T14:05:06;16.30;68.00
2539;DHT22;1280;49.760;9.664;2022-09-20T14:07:43;16.30;68.10
2539;DHT22;1280;49.760;9.664;2022-09-20T14:10:31;16.30;68.20
2539;DHT22;1280;49.760;9.664;2022-09-20T14:13:01;16.30;68.20
2539;DHT22;1280;49.760;9.664;2022-09-20T14:15:33;16.40;68.20
2539;DHT22;1280;49.760;9.664;2022-09-20T14:18:04;16.40;67.90
2539;DHT22;1280;49.760;9.664;2022-09-20T14:20:33;16.40;67.80
2539;DHT22;1280;49.760;9.664;2022-09-20T14:23:01;16.40;67.60
2539;DHT22;1280;49.760;9.664;2022-09-20T14:25:31;16.40;67.40
2539;DHT22;1280;49.760;9.664;2022-09-20T14:28:04;16.40;67.40
2539;DHT22;1280;49.760;9.664;2022-09-20T14:30:35;16.40;67.20
2539;DHT22;1280;49.760;9.664;2022-09-20T14:33:04;16.40;67.10
2539;DHT22;1280;49.760;9.664;2022-09-20T14:35:33;16.30;67.00
2539;DHT22;1280;49.760;9.664;2022-09-20T14:38:06;16.10;66.80
2539;DHT22;1280;49.760;9.664;2022-09-20T14:40:42;15.90;67.00
2539;DHT22;1280;49.760;9.664;2022-09-20T14:43:23;15.70;67.30
2539;DHT22;1280;49.760;9.664;2022-09-20T14:45:54;15.50;67.50
2539;DHT22;1280;49.760;9.664;2022-09-20T14:48:31;15.30;67.70
2539;DHT22;1280;49.760;9.664;2022-09-20T14:51:18;15.20;68.40
2539;DHT22;1280;49.760;9.664;2022-09-20T14:53:50;15.10;68.40
2539;DHT22;1280;49.760;9.664;2022-09-20T14:56:33;15.00;68.80
2539;DHT22;1280;49.760;9.664;2022-09-20T14:59:18;14.90;68.90
2539;DHT22;1280;49.760;9.664;2022-09-20T15:01:55;14.90;68.90
2539;DHT22;1280;49.760;9.664;2022-09-20T15:04:25;14.90;69.10
2539;DHT22;1280;49.760;9.664;2022-09-20T15:06:54;14.90;69.30
2539;DHT22;1280;49.760;9.664;2022-09-20T15:09:22;14.90;69.50
2539;DHT22;1280;49.760;9.664;2022-09-20T15:12:03;14.90;69.60
2539;DHT22;1280;49.760;9.664;2022-09-20T15:14:31;14.90;69.70
2539;DHT22;1280;49.760;9.664;2022-09-20T15:17:04;14.90;69.70
2539;DHT22;1280;49.760;9.664;2022-09-20T15:19:32;15.00;69.80
2539;DHT22;1280;49.760;9.664;2022-09-20T15:22:00;15.00;69.90
2539;DHT22;1280;49.760;9.664;2022-09-20T15:24:28;15.00;69.90
2539;DHT22;1280;49.760;9.664;2022-09-20T15:26:56;15.00;70.00
2539;DHT22;1280;49.760;9.664;2022-09-20T15:29:25;15.10;70.00
2539;DHT22;1280;49.760;9.664;2022-09-20T15:31:53;15.10;70.00
2539;DHT22;1280;49.760;9.664;2022-09-20T15:34:21;15.20;70.00
2539;DHT22;1280;49.760;9.664;2022-09-20T15:36:49;15.30;70.10
2539;DHT22;1280;49.760;9.664;2022-09-20T15:39:18;15.40;69.80
2539;DHT22;1280;49.760;9.664;2022-09-20T15:41:50;15.40;69.70
2539;DHT22;1280;49.760;9.664;2022-09-20T15:44:19;15.40;69.60
2539;DHT22;1280;49.760;9.664;2022-09-20T15:46:49;15.40;69.50
2539;DHT22;1280;49.760;9.664;2022-09-20T15:49:17;15.40;69.40
2539;DHT22;1280;49.760;9.664;2022-09-20T15:51:45;15.40;69.40
2539;DHT22;1280;49.760;9.664;2022-09-20T15:54:14;15.40;69.40
2539;DHT22;1280;49.760;9.664;2022-09-20T15:56:42;15.50;69.40
2539;DHT22;1280;49.760;9.664;2022-09-20T15:59:10;15.50;69.40
2539;DHT22;1280;49.760;9.664;2022-09-20T16:01:42;15.50;69.20
2539;DHT22;1280;49.760;9.664;2022-09-20T16:04:13;15.60;69.10
2539;DHT22;1280;49.760;9.664;2022-09-20T16:06:44;15.60;68.80
2539;DHT22;1280;49.760;9.664;2022-09-20T16:09:12;15.50;68.80
2539;DHT22;1280;49.760;9.664;2022-09-20T16:11:40;15.60;68.70
2539;DHT22;1280;49.760;9.664;2022-09-20T16:14:09;15.60;68.60
2539;DHT22;1280;49.760;9.664;2022-09-20T16:16:36;15.60;68.60
2539;DHT22;1280;49.760;9.664;2022-09-20T16:19:07;15.60;68.60
2539;DHT22;1280;49.760;9.664;2022-09-20T16:21:48;15.60;68.40
2539;DHT22;1280;49.760;9.664;2022-09-20T16:24:23;15.60;68.30
2539;DHT22;1280;49.760;9.664;2022-09-20T16:26:52;15.60;68.30
2539;DHT22;1280;49.760;9.664;2022-09-20T16:29:20;15.50;68.20
2539;DHT22;1280;49.760;9.664;2022-09-20T16:31:49;15.50;68.10
2539;DHT22;1280;49.760;9.664;2022-09-20T16:34:19;15.50;68.10
2539;DHT22;1280;49.760;9.664;2022-09-20T16:36:50;15.60;68.10
2539;DHT22;1280;49.760;9.664;2022-09-20T16:39:19;15.50;67.90
2539;DHT22;1280;49.760;9.664;2022-09-20T16:41:54;15.50;67.70
2539;DHT22;1280;49.760;9.664;2022-09-20T16:44:22;15.40;67.60
2539;DHT22;1280;49.760;9.664;2022-09-20T16:46:50;15.40;67.60
2539;DHT22;1280;49.760;9.664;2022-09-20T16:49:18;15.30;67.60
2539;DHT22;1280;49.760;9.664;2022-09-20T16:51:46;15.30;67.70
2539;DHT22;1280;49.760;9.664;2022-09-20T16:54:16;15.30;67.60
2539;DHT22;1280;49.760;9.664;2022-09-20T16:56:46;15.30;67.60
2539;DHT22;1280;49.760;9.664;2022-09-20T16:59:16;15.30;67.60
2539;DHT22;1280;49.760;9.664;2022-09-20T17:01:44;15.30;67.60
2539;DHT22;1280;49.760;9.664;2022-09-20T17:04:12;15.30;67.50
2539;DHT22;1280;49.760;9.664;2022-09-20T17:06:43;15.20;67.50
2539;DHT22;1280;49.760;9.664;2022-09-20T17:09:12;15.20;67.60
2539;DHT22;1280;49.760;9.664;2022-09-20T17:11:45;15.20;67.60
2539;DHT22;1280;49.760;9.664;2022-09-20T17:14:14;15.20;67.50
2539;DHT22;1280;49.760;9.664;2022-09-20T17:16:43;15.20;67.60
2539;DHT22;1280;49.760;9.664;2022-09-20T17:19:15;15.20;67.60
2539;DHT22;1280;49.760;9.664;2022-09-20T17:21:46;15.10;68.20
2539;DHT22;1280;49.760;9.664;2022-09-20T17:24:17;15.00;68.10
2539;DHT22;1280;49.760;9.664;2022-09-20T17:26:47;15.00;68.30
2539;DHT22;1280;49.760;9.664;2022-09-20T17:29:16;14.90;69.10
2539;DHT22;1280;49.760;9.664;2022-09-20T17:31:46;14.90;68.90
2539;DHT22;1280;49.760;9.664;2022-09-20T17:34:21;14.80;69.10